sensor_id;sensor_type;location;lat;lon;timestamp;temperature;humidity
65419;DHT22;52027;50.658;14.004;2023-02-18T00:01:46;21.10;37.48
65419;DHT22;52027;50.658;14.004;2023-02-18T00:04:11;21.10;37.51
65419;DHT22;52027;50.658;14.004;2023-02-18T00:06:37;21.08;37.48
65419;DHT22;52027;50.658;14.004;2023-02-18T00:09:03;21.07;37.51
65419;DHT22;52027;50.658;14.004;2023-02-18T00:11:29;21.06;37.51
65419;DHT22;52027;50.658;14.004;2023-02-18T00:13:56;21.07;37.49
65419;DHT22;52027;50.658;14.004;2023-02-18T00:16:22;21.06;37.48
65419;DHT22;52027;50.658;14.004;2023-02-18T00:18:48;21.04;37.50
65419;DHT22;52027;50.658;14.004;2023-02-18T00:21:13;21.04;37.55
65419;DHT22;52027;50.658;14.004;2023-02-18T00:23:39;21.03;37.57
65419;DHT22;52027;50.658;14.004;2023-02-18T00:26:06;21.04;37.55
65419;DHT22;52027;50.658;14.004;2023-02-18T00:28:31;21.07;37.55
65419;DHT22;52027;50.658;14.004;2023-02-18T00:30:56;21.06;37.49
65419;DHT22;52027;50.658;14.004;2023-02-18T00:33:22;21.04;37.49
65419;DHT22;52027;50.658;14.004;2023-02-18T00:35:47;21.06;37.53
65419;DHT22;52027;50.658;14.004;2023-02-18T00:38:12;21.04;37.52
65419;DHT22;52027;50.658;14.004;2023-02-18T00:40:38;21.06;37.59
65419;DHT22;52027;50.658;14.004;2023-02-18T00:43:04;21.03;37.49
65419;DHT22;52027;50.658;14.004;2023-02-18T00:45:29;21.01;37.54
65419;DHT22;52027;50.658;14.004;2023-02-18T00:47:54;21.03;37.55
65419;DHT22;52027;50.658;14.004;2023-02-18T00:50:20;21.03;37.53
65419;DHT22;52027;50.658;14.004;2023-02-18T00:52:45;21.03;37.57
65419;DHT22;52027;50.658;14.004;2023-02-18T00:55:10;21.04;37.56
65419;DHT22;52027;50.658;14.004;2023-02-18T00:57:35;21.01;37.51
65419;DHT22;52027;50.658;14.004;2023-02-18T01:00:01;21.01;37.49
65419;DHT22;52027;50.658;14.004;2023-02-18T01:02:27;21.03;37.53
65419;DHT22;52027;50.658;14.004;2023-02-18T01:04:52;21.01;37.53
65419;DHT22;52027;50.658;14.004;2023-02-18T01:07:17;21.03;37.53
65419;DHT22;52027;50.658;14.004;2023-02-18T01:09:42;21.01;37.57
65419;DHT22;52027;50.658;14.004;2023-02-18T01:12:08;21.03;37.56
65419;DHT22;52027;50.658;14.004;2023-02-18T01:14:33;21.03;37.50
65419;DHT22;52027;50.658;14.004;2023-02-18T01:16:58;21.03;37.54
65419;DHT22;52027;50.658;14.004;2023-02-18T01:19:23;21.03;37.57
65419;DHT22;52027;50.658;14.004;2023-02-18T01:21:48;21.01;37.49
65419;DHT22;52027;50.658;14.004;2023-02-18T01:24:14;21.03;37.49
65419;DHT22;52027;50.658;14.004;2023-02-18T01:26:39;20.98;37.50
65419;DHT22;52027;50.658;14.004;2023-02-18T01:29:04;21.00;37.51
65419;DHT22;52027;50.658;14.004;2023-02-18T01:31:29;20.98;37.56
65419;DHT22;52027;50.658;14.004;2023-02-18T01:33:55;20.96;37.50
65419;DHT22;52027;50.658;14.004;2023-02-18T01:36:20;20.97;37.54
65419;DHT22;52027;50.658;14.004;2023-02-18T01:38:45;20.98;37.53
65419;DHT22;52027;50.658;14.004;2023-02-18T01:41:10;20.96;37.57
65419;DHT22;52027;50.658;14.004;2023-02-18T01:43:36;20.96;37.53
65419;DHT22;52027;50.658;14.004;2023-02-18T01:51:03;20.96;37.56
65419;DHT22;52027;50.658;14.004;2023-02-18T01:53:32;20.96;37.58
65419;DHT22;52027;50.658;14.004;2023-02-18T01:55:59;20.94;37.57
65419;DHT22;52027;50.658;14.004;2023-02-18T01:58:27;20.96;37.52
65419;DHT22;52027;50.658;14.004;2023-02-18T02:00:52;20.98;37.53
65419;DHT22;52027;50.658;14.004;2023-02-18T02:03:18;20.96;37.53
65419;DHT22;52027;50.658;14.004;2023-02-18T02:05:43;20.96;37.55
65419;DHT22;52027;50.658;14.004;2023-02-18T02:08:08;20.94;37.55
65419;DHT22;52027;50.658;14.004;2023-02-18T02:10:42;20.96;37.55
65419;DHT22;52027;50.658;14.004;2023-02-18T02:13:14;20.94;37.59
65419;DHT22;52027;50.658;14.004;2023-02-18T02:15:46;20.94;37.55
65419;DHT22;52027;50.658;14.004;2023-02-18T02:36:52;20.93;37.52
65419;DHT22;52027;50.658;14.004;2023-02-18T02:39:20;20.91;37.53
65419;DHT22;52027;50.658;14.004;2023-02-18T02:41:57;20.93;37.55
65419;DHT22;52027;50.658;14.004;2023-02-18T02:47:43;20.91;37.52
65419;DHT22;52027;50.658;14.004;2023-02-18T02:52:34;20.91;37.52
65419;DHT22;52027;50.658;14.004;2023-02-18T02:55:09;20.91;37.55
65419;DHT22;52027;50.658;14.004;2023-02-18T03:00:10;20.91;37.52
65419;DHT22;52027;50.658;14.004;2023-02-18T03:05:15;20.93;37.53
65419;DHT22;52027;50.658;14.004;2023-02-18T03:15:36;20.90;37.43
65419;DHT22;52027;50.658;14.004;2023-02-18T03:18:05;20.91;37.48
65419;DHT22;52027;50.658;14.004;2023-02-18T03:20:33;20.91;37.50
65419;DHT22;52027;50.658;14.004;2023-02-18T03:23:00;20.90;37.49
65419;DHT22;52027;50.658;14.004;2023-02-18T03:25:27;20.90;37.51
65419;DHT22;52027;50.658;14.004;2023-02-18T03:27:54;20.93;37.50
65419;DHT22;52027;50.658;14.004;2023-02-18T03:30:21;20.91;37.52
65419;DHT22;52027;50.658;14.004;2023-02-18T03:32:48;20.93;37.48
65419;DHT22;52027;50.658;14.004;2023-02-18T03:35:16;20.90;37.52
65419;DHT22;52027;50.658;14.004;2023-02-18T03:37:43;20.91;37.52
65419;DHT22;52027;50.658;14.004;2023-02-18T03:40:11;20.91;37.47
65419;DHT22;52027;50.658;14.004;2023-02-18T03:42:36;20.91;37.53
65419;DHT22;52027;50.658;14.004;2023-02-18T03:45:02;20.88;37.51
65419;DHT22;52027;50.658;14.004;2023-02-18T03:47:28;20.91;37.55
65419;DHT22;52027;50.658;14.004;2023-02-18T03:49:53;20.90;37.47
65419;DHT22;52027;50.658;14.004;2023-02-18T03:52:18;20.90;37.53
65419;DHT22;52027;50.658;14.004;2023-02-18T03:54:43;20.88;37.47
65419;DHT22;52027;50.658;14.004;2023-02-18T03:57:09;20.90;37.51
65419;DHT22;52027;50.658;14.004;2023-02-18T03:59:34;20.90;37.50
65419;DHT22;52027;50.658;14.004;2023-02-18T04:01:59;20.90;37.49
65419;DHT22;52027;50.658;14.004;2023-02-18T04:04:25;20.90;37.49
65419;DHT22;52027;50.658;14.004;2023-02-18T04:06:50;20.90;37.49
65419;DHT22;52027;50.658;14.004;2023-02-18T04:09:15;20.88;37.50
65419;DHT22;52027;50.658;14.004;2023-02-18T04:11:40;20.90;37.50
65419;DHT22;52027;50.658;14.004;2023-02-18T04:14:06;20.87;37.52
65419;DHT22;52027;50.658;14.004;2023-02-18T04:16:32;20.88;37.48
65419;DHT22;52027;50.658;14.004;2023-02-18T04:18:57;20.90;37.51
65419;DHT22;52027;50.658;14.004;2023-02-18T04:21:22;20.88;37.50
65419;DHT22;52027;50.658;14.004;2023-02-18T04:23:47;20.87;37.48
65419;DHT22;52027;50.658;14.004;2023-02-18T04:26:13;20.88;37.46
65419;DHT22;52027;50.658;14.004;2023-02-18T04:28:38;20.88;37.51
65419;DHT22;52027;50.658;14.004;2023-02-18T04:31:03;20.87;37.51
65419;DHT22;52027;50.658;14.004;2023-02-18T04:33:28;20.84;37.51
65419;DHT22;52027;50.658;14.004;2023-02-18T04:35:54;20.87;37.44
65419;DHT22;52027;50.658;14.004;2023-02-18T04:38:19;20.87;37.48
65419;DHT22;52027;50.658;14.004;2023-02-18T04:40:44;20.86;37.44
65419;DHT22;52027;50.658;14.004;2023-02-18T04:43:10;20.87;37.50
65419;DHT22;52027;50.658;14.004;2023-02-18T04:45:35;20.87;37.44
65419;DHT22;52027;50.658;14.004;2023-02-18T04:48:00;20.86;37.44
65419;DHT22;52027;50.658;14.004;2023-02-18T04:50:26;20.87;37.50
65419;DHT22;52027;50.658;14.004;2023-02-18T04:52:51;20.88;37.49
65419;DHT22;52027;50.658;14.004;2023-02-18T04:55:16;20.90;37.50
65419;DHT22;52027;50.658;14.004;2023-02-18T04:57:42;20.86;37.47
65419;DHT22;52027;50.658;14.004;2023-02-18T05:00:09;20.87;37.51
65419;DHT22;52027;50.658;14.004;2023-02-18T05:02:35;20.88;37.47
65419;DHT22;52027;50.658;14.004;2023-02-18T05:05:00;20.87;37.48
65419;DHT22;52027;50.658;14.004;2023-02-18T05:07:25;20.86;37.51
65419;DHT22;52027;50.658;14.004;2023-02-18T05:09:51;20.88;37.47
65419;DHT22;52027;50.658;14.004;2023-02-18T05:12:16;20.88;37.49
65419;DHT22;52027;50.658;14.004;2023-02-18T05:14:41;20.87;37.48
65419;DHT22;52027;50.658;14.004;2023-02-18T05:17:06;20.87;37.49
65419;DHT22;52027;50.658;14.004;2023-02-18T05:19:32;20.86;37.50
65419;DHT22;52027;50.658;14.004;2023-02-18T05:21:57;20.88;37.48
65419;DHT22;52027;50.658;14.004;2023-02-18T05:24:22;20.88;37.46
65419;DHT22;52027;50.658;14.004;2023-02-18T05:26:47;20.87;37.46
65419;DHT22;52027;50.658;14.004;2023-02-18T05:29:13;20.86;37.42
65419;DHT22;52027;50.658;14.004;2023-02-18T05:31:38;20.86;37.46
65419;DHT22;52027;50.658;14.004;2023-02-18T05:34:03;20.87;37.46
65419;DHT22;52027;50.658;14.004;2023-02-18T05:36:28;20.88;37.50
65419;DHT22;52027;50.658;14.004;2023-02-18T05:38:54;20.87;37.44
65419;DHT22;52027;50.658;14.004;2023-02-18T05:41:19;20.86;37.44
65419;DHT22;52027;50.658;14.004;2023-02-18T05:43:44;20.88;37.44
65419;DHT22;52027;50.658;14.004;2023-02-18T05:46:28;20.88;37.47
65419;DHT22;52027;50.658;14.004;2023-02-18T05:48:54;20.88;37.46
65419;DHT22;52027;50.658;14.004;2023-02-18T05:51:19;20.91;37.43
65419;DHT22;52027;50.658;14.004;2023-02-18T05:53:44;20.91;37.50
65419;DHT22;52027;50.658;14.004;2023-02-18T05:56:10;20.88;37.46
65419;DHT22;52027;50.658;14.004;2023-02-18T05:58:35;20.90;37.45
65419;DHT22;52027;50.658;14.004;2023-02-18T06:01:00;20.90;37.44
65419;DHT22;52027;50.658;14.004;2023-02-18T06:03:25;20.90;37.37
65419;DHT22;52027;50.658;14.004;2023-02-18T06:05:51;20.88;37.41
65419;DHT22;52027;50.658;14.004;2023-02-18T06:08:16;20.90;37.44
65419;DHT22;52027;50.658;14.004;2023-02-18T06:10:41;20.88;37.41
65419;DHT22;52027;50.658;14.004;2023-02-18T06:13:06;20.87;37.44
65419;DHT22;52027;50.658;14.004;2023-02-18T06:15:32;20.90;37.36
65419;DHT22;52027;50.658;14.004;2023-02-18T06:17:57;20.88;37.39
65419;DHT22;52027;50.658;14.004;2023-02-18T06:20:22;20.90;37.39
65419;DHT22;52027;50.658;14.004;2023-02-18T06:22:48;20.90;37.40
65419;DHT22;52027;50.658;14.004;2023-02-18T06:25:13;20.88;37.37
65419;DHT22;52027;50.658;14.004;2023-02-18T06:27:38;20.91;37.37
65419;DHT22;52027;50.658;14.004;2023-02-18T06:30:04;20.90;37.37
65419;DHT22;52027;50.658;14.004;2023-02-18T06:32:29;20.87;37.41
65419;DHT22;52027;50.658;14.004;2023-02-18T06:34:54;20.88;37.39
65419;DHT22;52027;50.658;14.004;2023-02-18T06:37:19;20.90;37.39
65419;DHT22;52027;50.658;14.004;2023-02-18T06:39:45;20.90;37.37
65419;DHT22;52027;50.658;14.004;2023-02-18T06:42:10;20.91;37.41
65419;DHT22;52027;50.658;14.004;2023-02-18T06:44:35;20.91;37.35
65419;DHT22;52027;50.658;14.004;2023-02-18T06:47:00;20.90;37.37
65419;DHT22;52027;50.658;14.004;2023-02-18T06:49:25;20.90;37.35
65419;DHT22;52027;50.658;14.004;2023-02-18T06:51:51;20.91;37.39
65419;DHT22;52027;50.658;14.004;2023-02-18T06:54:16;20.90;37.39
65419;DHT22;52027;50.658;14.004;2023-02-18T06:56:41;20.90;37.32
65419;DHT22;52027;50.658;14.004;2023-02-18T06:59:06;20.93;37.37
65419;DHT22;52027;50.658;14.004;2023-02-18T07:01:32;20.93;37.32
65419;DHT22;52027;50.658;14.004;2023-02-18T07:03:57;20.91;37.36
65419;DHT22;52027;50.658;14.004;2023-02-18T07:06:22;20.91;37.33
65419;DHT22;52027;50.658;14.004;2023-02-18T07:08:48;20.94;37.27
65419;DHT22;52027;50.658;14.004;2023-02-18T07:11:13;20.91;37.36
65419;DHT22;52027;50.658;14.004;2023-02-18T07:13:38;20.93;37.27
65419;DHT22;52027;50.658;14.004;2023-02-18T07:16:04;20.94;37.29
65419;DHT22;52027;50.658;14.004;2023-02-18T07:18:29;20.91;37.26
65419;DHT22;52027;50.658;14.004;2023-02-18T07:20:54;20.94;37.27
65419;DHT22;52027;50.658;14.004;2023-02-18T07:23:19;20.93;37.28
65419;DHT22;52027;50.658;14.004;2023-02-18T07:25:45;20.93;37.24
65419;DHT22;52027;50.658;14.004;2023-02-18T07:28:10;20.91;37.26
65419;DHT22;52027;50.658;14.004;2023-02-18T07:30:35;20.91;37.20
65419;DHT22;52027;50.658;14.004;2023-02-18T07:33:00;20.94;37.29
65419;DHT22;52027;50.658;14.004;2023-02-18T07:35:26;20.94;37.25
65419;DHT22;52027;50.658;14.004;2023-02-18T07:37:51;20.96;37.26
65419;DHT22;52027;50.658;14.004;2023-02-18T07:40:17;20.93;37.27
65419;DHT22;52027;50.658;14.004;2023-02-18T07:42:43;20.94;37.23
65419;DHT22;52027;50.658;14.004;2023-02-18T07:45:08;20.96;37.27
65419;DHT22;52027;50.658;14.004;2023-02-18T07:47:34;20.93;37.22
65419;DHT22;52027;50.658;14.004;2023-02-18T07:49:59;20.96;37.22
65419;DHT22;52027;50.658;14.004;2023-02-18T07:52:24;20.94;37.22
65419;DHT22;52027;50.658;14.004;2023-02-18T07:54:50;20.94;37.19
65419;DHT22;52027;50.658;14.004;2023-02-18T07:57:15;20.94;37.22
65419;DHT22;52027;50.658;14.004;2023-02-18T07:59:40;20.94;37.22
65419;DHT22;52027;50.658;14.004;2023-02-18T08:02:05;20.96;37.20
65419;DHT22;52027;50.658;14.004;2023-02-18T08:04:31;20.93;37.25
65419;DHT22;52027;50.658;14.004;2023-02-18T08:06:57;20.96;37.19
65419;DHT22;52027;50.658;14.004;2023-02-18T08:09:22;20.96;37.19
65419;DHT22;52027;50.658;14.004;2023-02-18T08:11:47;20.97;37.20
65419;DHT22;52027;50.658;14.004;2023-02-18T08:14:12;20.94;37.20
65419;DHT22;52027;50.658;14.004;2023-02-18T08:16:38;20.96;37.17
65419;DHT22;52027;50.658;14.004;2023-02-18T08:19:03;20.93;37.22
65419;DHT22;52027;50.658;14.004;2023-02-18T08:21:28;20.97;37.17
65419;DHT22;52027;50.658;14.004;2023-02-18T08:23:54;20.97;37.21
65419;DHT22;52027;50.658;14.004;2023-02-18T08:26:21;20.96;37.17
65419;DHT22;52027;50.658;14.004;2023-02-18T08:28:46;20.97;37.17
65419;DHT22;52027;50.658;14.004;2023-02-18T08:31:15;20.97;37.17
65419;DHT22;52027;50.658;14.004;2023-02-18T08:33:41;20.96;37.16
65419;DHT22;52027;50.658;14.004;2023-02-18T08:36:06;20.98;37.13
65419;DHT22;52027;50.658;14.004;2023-02-18T08:38:34;20.97;37.16
65419;DHT22;52027;50.658;14.004;2023-02-18T08:41:00;20.98;37.17
65419;DHT22;52027;50.658;14.004;2023-02-18T08:43:26;20.97;37.21
65419;DHT22;52027;50.658;14.004;2023-02-18T08:45:51;20.96;37.15
65419;DHT22;52027;50.658;14.004;2023-02-18T08:48:16;20.97;37.09
65419;DHT22;52027;50.658;14.004;2023-02-18T08:50:41;20.97;37.10
65419;DHT22;52027;50.658;14.004;2023-02-18T08:53:06;20.97;37.16
65419;DHT22;52027;50.658;14.004;2023-02-18T08:55:32;20.98;37.09
65419;DHT22;52027;50.658;14.004;2023-02-18T08:57:58;20.98;37.19
65419;DHT22;52027;50.658;14.004;2023-02-18T09:00:23;20.96;37.09
65419;DHT22;52027;50.658;14.004;2023-02-18T09:02:49;20.97;37.07
65419;DHT22;52027;50.658;14.004;2023-02-18T09:05:14;20.98;37.12
65419;DHT22;52027;50.658;14.004;2023-02-18T09:07:39;21.00;37.07
65419;DHT22;52027;50.658;14.004;2023-02-18T09:10:05;20.98;37.08
65419;DHT22;52027;50.658;14.004;2023-02-18T09:12:31;20.98;37.13
65419;DHT22;52027;50.658;14.004;2023-02-18T09:14:56;20.97;37.08
65419;DHT22;52027;50.658;14.004;2023-02-18T09:17:22;21.00;37.09
65419;DHT22;52027;50.658;14.004;2023-02-18T09:19:47;21.00;37.11
65419;DHT22;52027;50.658;14.004;2023-02-18T09:22:12;21.00;37.08
65419;DHT22;52027;50.658;14.004;2023-02-18T09:24:38;21.01;37.06
65419;DHT22;52027;50.658;14.004;2023-02-18T09:27:04;21.01;37.08
65419;DHT22;52027;50.658;14.004;2023-02-18T09:29:33;21.01;37.05
65419;DHT22;52027;50.658;14.004;2023-02-18T09:31:59;21.01;37.05
65419;DHT22;52027;50.658;14.004;2023-02-18T09:34:24;21.01;37.09
65419;DHT22;52027;50.658;14.004;2023-02-18T09:36:49;21.01;37.08
65419;DHT22;52027;50.658;14.004;2023-02-18T09:39:14;21.00;37.04
65419;DHT22;52027;50.658;14.004;2023-02-18T09:41:43;21.01;37.02
65419;DHT22;52027;50.658;14.004;2023-02-18T09:44:51;21.03;37.09
65419;DHT22;52027;50.658;14.004;2023-02-18T09:47:12;21.06;37.04
65419;DHT22;52027;50.658;14.004;2023-02-18T09:49:42;21.04;37.02
65419;DHT22;52027;50.658;14.004;2023-02-18T09:52:13;21.01;37.02
65419;DHT22;52027;50.658;14.004;2023-02-18T09:54:38;21.03;37.04
65419;DHT22;52027;50.658;14.004;2023-02-18T09:57:03;21.04;37.02
65419;DHT22;52027;50.658;14.004;2023-02-18T09:59:30;21.04;36.99
65419;DHT22;52027;50.658;14.004;2023-02-18T10:01:55;21.01;37.08
65419;DHT22;52027;50.658;14.004;2023-02-18T10:04:26;21.04;37.02
65419;DHT22;52027;50.658;14.004;2023-02-18T10:06:54;21.03;37.02
65419;DHT22;52027;50.658;14.004;2023-02-18T10:09:36;21.04;37.04
65419;DHT22;52027;50.658;14.004;2023-02-18T10:12:18;21.04;36.98
65419;DHT22;52027;50.658;14.004;2023-02-18T10:14:53;21.04;37.02
65419;DHT22;52027;50.658;14.004;2023-02-18T10:17:19;21.06;37.02
65419;DHT22;52027;50.658;14.004;2023-02-18T10:19:47;21.01;36.97
65419;DHT22;52027;50.658;14.004;2023-02-18T10:22:13;21.04;37.01
65419;DHT22;52027;50.658;14.004;2023-02-18T10:24:51;21.04;36.97
65419;DHT22;52027;50.658;14.004;2023-02-18T10:29:49;21.04;37.00
65419;DHT22;52027;50.658;14.004;2023-02-18T10:37:46;21.06;36.94
65419;DHT22;52027;50.658;14.004;2023-02-18T10:43:02;21.08;36.94
65419;DHT22;52027;50.658;14.004;2023-02-18T10:50:34;21.07;36.91
65419;DHT22;52027;50.658;14.004;2023-02-18T10:53:01;21.08;36.90
65419;DHT22;52027;50.658;14.004;2023-02-18T10:55:36;21.08;36.91
65419;DHT22;52027;50.658;14.004;2023-02-18T10:58:02;21.06;36.92
65419;DHT22;52027;50.658;14.004;2023-02-18T11:00:32;21.08;36.87
65419;DHT22;52027;50.658;14.004;2023-02-18T11:05:35;21.10;36.92
65419;DHT22;52027;50.658;14.004;2023-02-18T11:08:00;21.08;36.90
65419;DHT22;52027;50.658;14.004;2023-02-18T11:10:30;21.10;36.88
65419;DHT22;52027;50.658;14.004;2023-02-18T11:13:00;21.10;36.84
65419;DHT22;52027;50.658;14.004;2023-02-18T11:15:27;21.08;36.87
65419;DHT22;52027;50.658;14.004;2023-02-18T11:17:56;21.10;36.87
65419;DHT22;52027;50.658;14.004;2023-02-18T11:20:28;21.12;36.87
65419;DHT22;52027;50.658;14.004;2023-02-18T11:22:57;21.14;36.84
65419;DHT22;52027;50.658;14.004;2023-02-18T11:25:24;21.11;36.85
65419;DHT22;52027;50.658;14.004;2023-02-18T11:27:51;21.12;36.83
65419;DHT22;52027;50.658;14.004;2023-02-18T11:30:21;21.10;36.86
65419;DHT22;52027;50.658;14.004;2023-02-18T11:32:48;21.12;36.83
65419;DHT22;52027;50.658;14.004;2023-02-18T11:35:17;21.11;36.81
65419;DHT22;52027;50.658;14.004;2023-02-18T11:37:43;21.12;36.83
65419;DHT22;52027;50.658;14.004;2023-02-18T11:40:22;21.11;36.84
65419;DHT22;52027;50.658;14.004;2023-02-18T11:42:48;21.14;36.82
65419;DHT22;52027;50.658;14.004;2023-02-18T11:45:30;21.14;36.82
65419;DHT22;52027;50.658;14.004;2023-02-18T11:47:59;21.14;36.86
65419;DHT22;52027;50.658;14.004;2023-02-18T11:50:25;21.14;36.81
65419;DHT22;52027;50.658;14.004;2023-02-18T11:52:54;21.15;36.80
65419;DHT22;52027;50.658;14.004;2023-02-18T11:55:25;21.17;36.79
65419;DHT22;52027;50.658;14.004;2023-02-18T11:57:55;21.15;36.77
65419;DHT22;52027;50.658;14.004;2023-02-18T12:00:29;21.14;36.81
65419;DHT22;52027;50.658;14.004;2023-02-18T12:03:00;21.17;36.79
65419;DHT22;52027;50.658;14.004;2023-02-18T12:05:26;21.15;36.80
65419;DHT22;52027;50.658;14.004;2023-02-18T12:10:42;21.15;36.83
65419;DHT22;52027;50.658;14.004;2023-02-18T12:15:42;21.15;36.80
65419;DHT22;52027;50.658;14.004;2023-02-18T12:18:35;21.14;36.80
65419;DHT22;52027;50.658;14.004;2023-02-18T12:28:44;21.14;36.83
65419;DHT22;52027;50.658;14.004;2023-02-18T12:39:02;21.15;36.86
65419;DHT22;52027;50.658;14.004;2023-02-18T12:41:34;21.15;36.82
65419;DHT22;52027;50.658;14.004;2023-02-18T12:46:44;21.12;36.81
65419;DHT22;52027;50.658;14.004;2023-02-18T13:17:59;21.15;36.85
65419;DHT22;52027;50.658;14.004;2023-02-18T13:20:36;21.17;36.86
65419;DHT22;52027;50.658;14.004;2023-02-18T13:23:02;21.18;36.85
65419;DHT22;52027;50.658;14.004;2023-02-18T13:25:28;21.17;36.89
65419;DHT22;52027;50.658;14.004;2023-02-18T13:28:05;21.15;36.88
65419;DHT22;52027;50.658;14.004;2023-02-18T13:35:39;21.17;36.83
65419;DHT22;52027;50.658;14.004;2023-02-18T13:38:13;21.18;36.78
65419;DHT22;52027;50.658;14.004;2023-02-18T13:40:41;21.18;36.75
65419;DHT22;52027;50.658;14.004;2023-02-18T13:46:01;21.18;36.83
65419;DHT22;52027;50.658;14.004;2023-02-18T13:48:27;21.21;36.73
65419;DHT22;52027;50.658;14.004;2023-02-18T13:50:53;21.18;36.73
65419;DHT22;52027;50.658;14.004;2023-02-18T13:53:24;21.20;36.78
65419;DHT22;52027;50.658;14.004;2023-02-18T14:01:35;21.21;36.72
65419;DHT22;52027;50.658;14.004;2023-02-18T14:04:01;21.24;36.74
65419;DHT22;52027;50.658;14.004;2023-02-18T14:06:31;21.23;36.72
65419;DHT22;52027;50.658;14.004;2023-02-18T14:11:53;21.23;36.69
65419;DHT22;52027;50.658;14.004;2023-02-18T14:19:34;21.21;36.69
65419;DHT22;52027;50.658;14.004;2023-02-18T14:24:56;21.21;36.75
65419;DHT22;52027;50.658;14.004;2023-02-18T14:27:24;21.21;36.75
65419;DHT22;52027;50.658;14.004;2023-02-18T14:29:50;21.21;36.76
65419;DHT22;52027;50.658;14.004;2023-02-18T14:32:16;21.21;36.74
65419;DHT22;52027;50.658;14.004;2023-02-18T14:37:45;21.21;36.74
65419;DHT22;52027;50.658;14.004;2023-02-18T14:40:19;21.20;36.75
65419;DHT22;52027;50.658;14.004;2023-02-18T14:51:00;21.20;36.70
65419;DHT22;52027;50.658;14.004;2023-02-18T14:53:26;21.18;36.72
65419;DHT22;52027;50.658;14.004;2023-02-18T14:55:58;21.18;36.72
65419;DHT22;52027;50.658;14.004;2023-02-18T14:58:30;21.17;36.75
65419;DHT22;52027;50.658;14.004;2023-02-18T15:00:56;21.14;36.73
65419;DHT22;52027;50.658;14.004;2023-02-18T15:03:22;21.17;36.74
65419;DHT22;52027;50.658;14.004;2023-02-18T15:05:50;21.15;36.75
65419;DHT22;52027;50.658;14.004;2023-02-18T15:08:17;21.17;36.79
65419;DHT22;52027;50.658;14.004;2023-02-18T15:15:43;21.14;36.76
65419;DHT22;52027;50.658;14.004;2023-02-18T15:18:18;21.15;36.75
65419;DHT22;52027;50.658;14.004;2023-02-18T15:20:44;21.11;36.80
65419;DHT22;52027;50.658;14.004;2023-02-18T15:23:10;21.11;36.81
65419;DHT22;52027;50.658;14.004;2023-02-18T15:25:38;21.12;36.84
65419;DHT22;52027;50.658;14.004;2023-02-18T15:28:03;21.12;36.81
65419;DHT22;52027;50.658;14.004;2023-02-18T15:30:29;21.10;36.81
65419;DHT22;52027;50.658;14.004;2023-02-18T15:32:56;21.08;36.88
65419;DHT22;52027;50.658;14.004;2023-02-18T15:35:22;21.08;36.84
65419;DHT22;52027;50.658;14.004;2023-02-18T15:37:53;21.11;36.89
65419;DHT22;52027;50.658;14.004;2023-02-18T15:40:19;21.11;36.86
65419;DHT22;52027;50.658;14.004;2023-02-18T15:42:46;21.08;36.84
65419;DHT22;52027;50.658;14.004;2023-02-18T15:45:23;21.08;36.86
65419;DHT22;52027;50.658;14.004;2023-02-18T15:47:50;21.08;36.88
65419;DHT22;52027;50.658;14.004;2023-02-18T15:50:17;21.10;36.88
65419;DHT22;52027;50.658;14.004;2023-02-18T15:52:43;21.07;36.84
65419;DHT22;52027;50.658;14.004;2023-02-18T15:55:12;21.08;36.94
65419;DHT22;52027;50.658;14.004;2023-02-18T15:57:38;21.10;36.92
65419;DHT22;52027;50.658;14.004;2023-02-18T16:00:10;21.07;36.93
65419;DHT22;52027;50.658;14.004;2023-02-18T16:02:48;21.08;36.88
65419;DHT22;52027;50.658;14.004;2023-02-18T16:05:15;21.07;36.88
65419;DHT22;52027;50.658;14.004;2023-02-18T16:07:56;21.07;36.90
65419;DHT22;52027;50.658;14.004;2023-02-18T16:10:37;21.06;36.88
65419;DHT22;52027;50.658;14.004;2023-02-18T16:13:04;21.08;36.92
65419;DHT22;52027;50.658;14.004;2023-02-18T16:15:36;21.07;36.91
65419;DHT22;52027;50.658;14.004;2023-02-18T16:18:02;21.06;36.97
65419;DHT22;52027;50.658;14.004;2023-02-18T16:20:34;21.06;36.88
65419;DHT22;52027;50.658;14.004;2023-02-18T16:23:01;21.04;36.90
65419;DHT22;52027;50.658;14.004;2023-02-18T16:25:48;21.06;36.91
65419;DHT22;52027;50.658;14.004;2023-02-18T16:28:15;21.04;36.94
65419;DHT22;52027;50.658;14.004;2023-02-18T16:30:41;21.04;36.95
65419;DHT22;52027;50.658;14.004;2023-02-18T16:33:07;21.06;36.92
65419;DHT22;52027;50.658;14.004;2023-02-18T16:35:33;21.01;36.97
65419;DHT22;52027;50.658;14.004;2023-02-18T16:37:58;21.04;36.91
65419;DHT22;52027;50.658;14.004;2023-02-18T16:40:34;21.04;36.96
65419;DHT22;52027;50.658;14.004;2023-02-18T16:43:09;21.01;36.96
65419;DHT22;52027;50.658;14.004;2023-02-18T16:45:36;21.01;36.99
65419;DHT22;52027;50.658;14.004;2023-02-18T16:48:02;21.01;36.99
65419;DHT22;52027;50.658;14.004;2023-02-18T16:50:28;20.98;37.01
65419;DHT22;52027;50.658;14.004;2023-02-18T16:52:55;21.01;36.96
65419;DHT22;52027;50.658;14.004;2023-02-18T16:55:21;20.97;37.01
65419;DHT22;52027;50.658;14.004;2023-02-18T16:57:47;21.00;37.05
65419;DHT22;52027;50.658;14.004;2023-02-18T17:00:12;20.97;37.02
65419;DHT22;52027;50.658;14.004;2023-02-18T17:02:38;20.97;37.02
65419;DHT22;52027;50.658;14.004;2023-02-18T17:05:03;20.96;37.02
65419;DHT22;52027;50.658;14.004;2023-02-18T17:07:29;21.00;37.05
65419;DHT22;52027;50.658;14.004;2023-02-18T17:09:56;20.96;37.06
65419;DHT22;52027;50.658;14.004;2023-02-18T17:12:22;20.96;37.07
65419;DHT22;52027;50.658;14.004;2023-02-18T17:14:47;20.96;37.01
65419;DHT22;52027;50.658;14.004;2023-02-18T17:17:13;20.93;37.09
65419;DHT22;52027;50.658;14.004;2023-02-18T17:19:38;20.91;37.07
65419;DHT22;52027;50.658;14.004;2023-02-18T17:22:03;20.93;37.12
65419;DHT22;52027;50.658;14.004;2023-02-18T17:24:29;20.96;37.11
65419;DHT22;52027;50.658;14.004;2023-02-18T17:26:54;20.90;37.07
65419;DHT22;52027;50.658;14.004;2023-02-18T17:29:20;20.93;37.11
65419;DHT22;52027;50.658;14.004;2023-02-18T17:31:46;20.91;37.13
65419;DHT22;52027;50.658;14.004;2023-02-18T17:34:23;20.91;37.10
65419;DHT22;52027;50.658;14.004;2023-02-18T17:36:49;20.91;37.08
65419;DHT22;52027;50.658;14.004;2023-02-18T17:39:15;20.88;37.14
65419;DHT22;52027;50.658;14.004;2023-02-18T17:41:41;20.90;37.17
65419;DHT22;52027;50.658;14.004;2023-02-18T17:44:16;20.88;37.15
65419;DHT22;52027;50.658;14.004;2023-02-18T17:46:42;20.91;37.18
65419;DHT22;52027;50.658;14.004;2023-02-18T17:49:08;20.88;37.18